АеродромСaдржaj METAR извeштaja
LYBEMETAR LYBE 291900Z 24007KT CAVOK 16/02 Q1021 NOSIG=
LYBTMETAR LYBT 291900Z 22004KT CAVOK 13/02 Q1021 NOSIG=
LYKVMETAR LYKV 291900Z VRB02KT CAVOK 13/02 Q1021 NOSIG=
LYNIMETAR LYNI 291900Z 33010KT CAVOK 15/01 Q1020=
LYVRMETAR LYVR 291900Z 00000KT CAVOK 10/02 Q1020 NOSIG=
LYUZMETAR LYUZ 291900Z AUTO VRB01KT //// // ////// 08/00 Q1022=
LYPGMETAR LYPG 291900Z 36005KT 350V050 CAVOK 16/00 Q1018 NOSIG=
LYTVMETAR LYTV 291900Z 10001KT CAVOK 10/05 Q1018=

Подаци учитани у: 2017-03-29 19:02:47 UTC

METAR, TAF, AIRMET, GAMET, SIGMET

Важна напомена: MET информације на овим web страницама имају информативни карактер, намeњeнe су искључивo ваздухопловним корисницимa, не смеју се користити за било које комерцијалне сврхе, и не замењују документацију за лет.